Time;durP1;ratioP1;P1;durP2;ratioP2;P2;SDS_P1;SDS_P2;PMS_P1;PMS_P2;Temp;Humidity;BMP_temperature;BMP_pressure;BME280_temperature;BME280_humidity;BME280_pressure;Samples;Min_cycle;Max_cycle;Signal;HPM_P1;HPM_P2
2021/12/06 00:00:18;;;;;;;127.70;57.30;;;;;;;1.55;82.21;97720.20;105210;1325;22624;-78
2021/12/06 00:02:47;;;;;;;116.30;53.40;;;;;;;1.57;82.47;97721.33;105164;1322;22823;-78
2021/12/06 00:05:15;;;;;;;124.60;54.40;;;;;;;1.57;82.44;97724.08;105264;1325;22624;-78
2021/12/06 00:07:42;;;;;;;123.10;55.00;;;;;;;1.55;82.71;97727.39;105133;1322;22664;-78
2021/12/06 00:10:11;;;;;;;118.90;54.20;;;;;;;1.55;82.57;97730.66;105436;1325;22680;-76
2021/12/06 00:12:38;;;;;;;130.60;56.00;;;;;;;1.55;82.48;97728.44;105425;1325;22588;-76
2021/12/06 00:15:06;;;;;;;124.30;55.20;;;;;;;1.54;82.39;97726.05;105154;1324;22572;-77
2021/12/06 00:17:33;;;;;;;140.20;62.00;;;;;;;1.58;82.29;97725.38;105149;1325;25417;-76
2021/12/06 00:20:00;;;;;;;134.80;59.20;;;;;;;1.62;82.33;97724.02;105106;1324;22599;-76
2021/12/06 00:22:27;;;;;;;123.70;55.90;;;;;;;1.64;82.53;97722.02;105142;1325;22599;-76
2021/12/06 00:24:55;;;;;;;125.20;59.40;;;;;;;1.64;82.79;97720.66;105146;1322;26009;-76
2021/12/06 00:27:24;;;;;;;125.40;58.20;;;;;;;1.63;82.68;97717.42;105118;1325;22574;-77
2021/12/06 00:29:51;;;;;;;124.40;56.80;;;;;;;1.59;82.50;97716.92;105105;1324;22609;-77
2021/12/06 00:32:19;;;;;;;124.70;57.80;;;;;;;1.59;82.28;97715.23;105125;1325;23058;-77
2021/12/06 00:34:46;;;;;;;125.60;58.10;;;;;;;1.64;82.29;97711.55;105146;1325;23178;-77
2021/12/06 00:37:30;;;;;;;116.70;55.10;;;;;;;1.67;82.37;97714.04;105157;1325;22596;-77
2021/12/06 00:40:00;;;;;;;127.80;57.30;;;;;;;1.65;82.77;97714.61;105096;1325;26576;-77
2021/12/06 00:42:33;;;;;;;123.10;53.10;;;;;;;1.62;82.70;97713.71;105149;1324;24786;-77
2021/12/06 00:45:04;;;;;;;112.00;51.00;;;;;;;1.59;82.71;97714.91;105126;1323;22582;-77
2021/12/06 00:47:31;;;;;;;103.70;47.50;;;;;;;1.56;82.53;97715.86;105182;1325;24418;-77
2021/12/06 00:49:58;;;;;;;103.10;45.30;;;;;;;1.54;82.48;97712.67;105158;1324;22596;-77
2021/12/06 00:52:25;;;;;;;71.90;31.50;;;;;;;1.58;82.31;97716.63;105152;1325;22742;-77
2021/12/06 00:54:52;;;;;;;61.60;28.50;;;;;;;1.59;82.60;97718.63;105160;1325;24200;-77
2021/12/06 00:57:19;;;;;;;54.70;26.60;;;;;;;1.58;82.75;97720.27;105150;1324;22602;-77
2021/12/06 00:59:46;;;;;;;58.90;27.60;;;;;;;1.54;82.93;97721.59;105161;1325;22598;-77
2021/12/06 01:02:14;;;;;;;62.00;28.00;;;;;;;1.51;82.91;97723.63;105149;1324;22708;-77
2021/12/06 01:04:45;;;;;;;55.70;26.20;;;;;;;1.48;82.68;97721.33;105198;1325;22572;-76
2021/12/06 01:07:13;;;;;;;60.50;26.50;;;;;;;1.47;82.34;97726.38;105170;1325;22587;-76
2021/12/06 01:09:41;;;;;;;49.00;23.30;;;;;;;1.49;82.30;97727.48;105115;1325;26965;-76
2021/12/06 01:12:09;;;;;;;55.50;24.10;;;;;;;1.47;82.84;97734.09;105388;1325;22583;-77
2021/12/06 01:14:36;;;;;;;50.80;22.20;;;;;;;1.46;83.21;97740.48;105169;1325;22575;-77
2021/12/06 01:17:05;;;;;;;50.70;23.40;;;;;;;1.43;83.18;97746.11;105168;1324;22682;-77
2021/12/06 01:19:32;;;;;;;54.20;23.50;;;;;;;1.39;82.99;97743.20;105138;1325;26206;-77
2021/12/06 01:22:52;;;;;;;51.10;23.10;;;;;;;1.36;82.76;97741.27;105152;1325;24410;-77
2021/12/06 01:25:18;;;;;;;48.80;20.90;;;;;;;1.35;82.74;97739.41;105255;1325;25434;-77
2021/12/06 01:41:00;;;;;;;46.80;21.00;;;;;;;1.41;82.51;97749.45;105129;1325;22613;-76
2021/12/06 01:43:28;;;;;;;44.00;20.90;;;;;;;1.44;82.54;97737.65;105100;1324;24227;-76
2021/12/06 01:45:55;;;;;;;37.80;18.20;;;;;;;1.40;82.76;97732.52;105073;1325;22669;-76
2021/12/06 01:48:22;;;;;;;40.70;20.60;;;;;;;1.35;83.13;97728.27;105063;1325;22714;-76
2021/12/06 01:50:49;;;;;;;42.50;22.20;;;;;;;1.26;82.99;97721.80;105156;1320;25479;-76
2021/12/06 01:53:16;;;;;;;38.80;19.60;;;;;;;1.19;83.01;97717.62;105217;1325;25426;-76
2021/12/06 01:55:44;;;;;;;36.80;18.20;;;;;;;1.13;82.62;97715.31;105422;1325;22609;-77
2021/12/06 01:58:12;;;;;;;40.20;19.50;;;;;;;1.08;82.45;97715.66;105431;1325;22768;-77
2021/12/06 02:00:52;;;;;;;42.60;20.80;;;;;;;1.07;82.62;97718.29;105399;1325;24231;-77
2021/12/06 02:03:19;;;;;;;42.00;19.40;;;;;;;1.06;82.84;97722.26;105410;1325;25694;-77
2021/12/06 02:05:50;;;;;;;38.40;18.10;;;;;;;1.07;83.36;97727.56;105447;1324;22595;-77
2021/12/06 02:08:17;;;;;;;35.40;18.20;;;;;;;1.03;83.31;97734.94;105394;1324;24244;-78
2021/12/06 02:10:45;;;;;;;37.30;18.70;;;;;;;0.98;83.05;97744.21;105385;1325;22668;-77
2021/12/06 02:13:13;;;;;;;42.70;19.50;;;;;;;0.93;83.08;97745.61;105402;1325;22646;-77
2021/12/06 02:18:26;;;;;;;47.80;20.90;;;;;;;0.94;83.20;97733.41;105440;1322;22594;-78
2021/12/06 02:21:02;;;;;;;40.40;18.50;;;;;;;0.89;83.71;97733.27;105449;1322;23554;-78
2021/12/06 02:23:30;;;;;;;42.00;19.20;;;;;;;0.82;83.64;97728.77;105400;1324;22578;-77
2021/12/06 02:25:58;;;;;;;40.90;18.20;;;;;;;0.76;83.43;97734.65;105409;1324;22594;-77
2021/12/06 02:28:25;;;;;;;53.30;20.90;;;;;;;0.72;83.42;97735.99;105428;1322;22788;-76
2021/12/06 02:30:52;;;;;;;50.60;18.50;;;;;;;0.77;83.50;97736.67;105377;1325;24206;-76
2021/12/06 02:33:19;;;;;;;51.80;18.90;;;;;;;0.80;83.61;97736.23;105406;1325;22541;-77
2021/12/06 02:35:46;;;;;;;42.70;18.70;;;;;;;0.78;83.91;97735.11;105440;1325;22592;-77
2021/12/06 02:38:13;;;;;;;44.90;18.20;;;;;;;0.75;84.08;97743.44;105432;1325;22741;-76
2021/12/06 02:40:40;;;;;;;42.80;17.30;;;;;;;0.71;83.90;97743.95;105408;1325;22592;-76
2021/12/06 02:43:11;;;;;;;43.40;16.60;;;;;;;0.66;83.67;97747.57;105094;1324;22600;-76
2021/12/06 02:45:40;;;;;;;42.60;16.00;;;;;;;0.68;83.74;97758.97;105112;1325;22816;-76
2021/12/06 02:48:09;;;;;;;36.20;15.60;;;;;;;0.67;83.94;97758.33;105129;1325;23190;-76
2021/12/06 02:50:47;;;;;;;28.30;13.20;;;;;;;0.65;84.31;97768.17;105127;1325;22594;-77
2021/12/06 02:53:15;;;;;;;33.40;15.30;;;;;;;0.61;84.42;97775.71;105101;1324;22653;-76
2021/12/06 02:55:43;;;;;;;31.20;15.30;;;;;;;0.57;84.34;97781.84;105085;1324;22656;-75
2021/12/06 02:58:21;;;;;;;33.90;14.30;;;;;;;0.57;84.13;97783.05;105086;1325;22516;-76
2021/12/06 03:00:54;;;;;;;35.10;14.70;;;;;;;0.59;83.95;97787.41;105152;1325;25371;-77
2021/12/06 03:03:22;;;;;;;33.90;15.20;;;;;;;0.63;84.06;97795.80;105128;1325;22631;-77
2021/12/06 03:05:51;;;;;;;29.30;13.30;;;;;;;0.67;84.23;97798.61;105117;1324;22707;-77
2021/12/06 03:08:34;;;;;;;37.60;15.10;;;;;;;0.68;84.38;97800.95;105117;1325;22588;-76
2021/12/06 03:11:03;;;;;;;36.50;15.80;;;;;;;0.69;84.23;97800.24;105166;1325;22812;-76
2021/12/06 03:13:30;;;;;;;31.60;15.60;;;;;;;0.68;84.01;97799.39;105106;1325;23615;-76
2021/12/06 03:15:57;;;;;;;37.70;16.50;;;;;;;0.68;83.69;97795.13;105117;1322;23462;-76
2021/12/06 03:18:24;;;;;;;35.40;15.20;;;;;;;0.71;83.73;97795.17;105113;1325;25546;-76
2021/12/06 03:20:51;;;;;;;36.80;15.30;;;;;;;0.74;83.87;97793.66;105117;1325;22654;-76
2021/12/06 03:23:18;;;;;;;31.10;13.70;;;;;;;0.72;84.26;97786.23;105064;1325;22709;-76
2021/12/06 03:25:45;;;;;;;31.40;14.50;;;;;;;0.63;84.23;97775.97;105093;1325;22652;-76
2021/12/06 03:28:12;;;;;;;35.80;15.20;;;;;;;0.57;84.12;97774.98;105100;1322;22707;-76
2021/12/06 03:30:39;;;;;;;38.40;15.90;;;;;;;0.53;83.94;97769.83;105070;1325;22595;-76
2021/12/06 03:33:06;;;;;;;36.20;14.30;;;;;;;0.55;83.94;97767.02;105117;1325;22591;-76
2021/12/06 03:35:33;;;;;;;33.10;13.80;;;;;;;0.53;84.24;97764.52;105383;1325;22606;-76
2021/12/06 03:38:00;;;;;;;26.30;11.70;;;;;;;0.52;84.53;97766.28;105404;1325;22702;-76
2021/12/06 03:40:28;;;;;;;27.20;11.80;;;;;;;0.47;84.59;97765.96;105338;1325;25593;-76
2021/12/06 03:42:55;;;;;;;28.90;13.20;;;;;;;0.38;84.38;97763.39;105379;1324;22591;-76
2021/12/06 03:45:23;;;;;;;33.00;13.40;;;;;;;0.33;84.36;97767.17;105351;1325;22740;-76
2021/12/06 03:47:50;;;;;;;29.60;12.00;;;;;;;0.34;84.31;97760.80;105365;1325;22613;-76
2021/12/06 03:50:17;;;;;;;29.80;13.20;;;;;;;0.31;84.64;97762.80;105392;1325;22599;-76
2021/12/06 03:52:44;;;;;;;27.10;13.20;;;;;;;0.30;84.89;97759.39;105381;1325;22595;-76
2021/12/06 03:55:13;;;;;;;27.90;12.00;;;;;;;0.25;85.05;97761.98;105388;1325;22694;-76
2021/12/06 03:57:40;;;;;;;27.30;12.90;;;;;;;0.21;84.90;97770.88;105381;1325;22598;-76
2021/12/06 04:00:08;;;;;;;31.60;13.00;;;;;;;0.21;84.69;97779.27;105370;1325;22597;-76
2021/12/06 04:02:38;;;;;;;28.70;13.00;;;;;;;0.26;84.66;97785.26;105394;1325;22601;-76
2021/12/06 04:05:06;;;;;;;26.70;11.90;;;;;;;0.31;84.56;97795.68;105409;1325;22594;-77
2021/12/06 04:07:33;;;;;;;26.10;11.30;;;;;;;0.35;84.74;97802.73;105409;1325;23261;-76
2021/12/06 04:10:01;;;;;;;22.80;11.20;;;;;;;0.36;84.81;97801.81;105405;1325;22591;-76
2021/12/06 04:12:28;;;;;;;25.40;11.40;;;;;;;0.37;84.70;97802.45;105442;1325;22672;-77
2021/12/06 04:14:57;;;;;;;20.40;10.10;;;;;;;0.38;84.61;97805.52;105394;1325;22609;-77
2021/12/06 04:17:24;;;;;;;26.00;11.80;;;;;;;0.40;84.44;97811.46;105365;1324;22596;-76
2021/12/06 04:19:52;;;;;;;25.00;11.40;;;;;;;0.44;84.39;97816.77;105377;1324;24259;-77
2021/12/06 04:22:20;;;;;;;25.10;11.20;;;;;;;0.48;84.29;97810.79;105375;1325;22599;-76
2021/12/06 04:24:47;;;;;;;26.60;11.20;;;;;;;0.48;84.53;97808.57;105378;1325;25617;-76
2021/12/06 04:27:15;;;;;;;26.50;12.70;;;;;;;0.47;84.61;97812.91;105391;1325;22652;-76
2021/12/06 04:29:47;;;;;;;25.90;11.70;;;;;;;0.42;84.36;97812.23;105400;1325;22559;-76
2021/12/06 04:32:15;;;;;;;26.30;12.90;;;;;;;0.38;84.33;97807.39;105413;1325;24814;-76
2021/12/06 04:34:43;;;;;;;30.20;13.00;;;;;;;0.38;84.15;97807.22;105384;1324;22642;-76
2021/12/06 04:37:13;;;;;;;30.90;13.40;;;;;;;0.41;84.03;97809.88;105441;1325;22591;-76
2021/12/06 04:39:41;;;;;;;25.20;11.80;;;;;;;0.41;84.25;97801.48;105407;1325;22785;-76
2021/12/06 04:42:08;;;;;;;25.90;12.60;;;;;;;0.40;84.58;97800.33;105433;1325;22600;-76
2021/12/06 04:44:36;;;;;;;22.90;12.00;;;;;;;0.33;84.79;97806.91;105444;1325;22655;-76
2021/12/06 04:47:04;;;;;;;22.60;10.90;;;;;;;0.26;84.64;97802.55;105413;1325;24233;-76
2021/12/06 04:49:32;;;;;;;25.00;12.00;;;;;;;0.23;84.28;97799.58;105460;1325;22617;-76
2021/12/06 04:52:03;;;;;;;26.40;12.80;;;;;;;0.18;84.20;97802.84;105426;1325;22604;-76
2021/12/06 04:54:33;;;;;;;29.10;13.80;;;;;;;0.22;84.11;97804.77;105428;1325;22665;-76
2021/12/06 04:57:23;;;;;;;28.80;13.60;;;;;;;0.22;84.28;97812.80;105404;1325;22599;-76
2021/12/06 05:00:19;;;;;;;26.70;13.10;;;;;;;0.21;84.50;97822.92;105407;1325;22640;-77
2021/12/06 05:02:47;;;;;;;26.40;13.10;;;;;;;0.22;84.67;97830.45;105391;1325;22612;-76
2021/12/06 05:05:42;;;;;;;28.30;12.70;;;;;;;0.22;84.81;97832.14;105420;1325;22584;-76
2021/12/06 05:08:21;;;;;;;30.00;12.60;;;;;;;0.18;84.47;97838.30;105374;1324;22588;-77
2021/12/06 05:10:50;;;;;;;26.40;12.90;;;;;;;0.18;84.21;97838.80;105427;1325;22725;-77
2021/12/06 05:13:17;;;;;;;26.20;13.10;;;;;;;0.19;84.06;97848.16;105456;1325;22603;-76
2021/12/06 05:15:45;;;;;;;26.20;12.90;;;;;;;0.21;84.37;97847.42;105369;1324;22594;-76
2021/12/06 05:18:12;;;;;;;25.30;12.70;;;;;;;0.20;84.46;97854.13;105114;1325;22643;-76
2021/12/06 05:20:39;;;;;;;24.70;12.80;;;;;;;0.19;84.81;97855.36;105123;1325;25373;-76
2021/12/06 05:23:08;;;;;;;25.90;12.40;;;;;;;0.20;84.64;97860.64;105123;1325;22651;-76
2021/12/06 05:25:36;;;;;;;29.60;12.90;;;;;;;0.20;84.51;97861.68;105071;1325;22648;-76
2021/12/06 05:28:04;;;;;;;26.50;13.10;;;;;;;0.20;84.35;97856.02;105148;1325;24364;-75
2021/12/06 05:30:33;;;;;;;25.20;12.40;;;;;;;0.22;84.62;97854.91;105110;1325;22813;-76
2021/12/06 05:33:02;;;;;;;23.90;11.90;;;;;;;0.16;84.79;97846.73;105118;1324;24374;-75
2021/12/06 05:35:29;;;;;;;25.60;13.10;;;;;;;0.12;84.86;97837.65;105116;1324;25347;-75
2021/12/06 05:37:58;;;;;;;28.40;13.10;;;;;;;0.07;84.78;97838.69;105094;1325;22727;-76
2021/12/06 05:40:31;;;;;;;28.30;13.60;;;;;;;0.04;84.71;97849.24;105137;1325;22624;-76
2021/12/06 05:43:00;;;;;;;25.10;13.10;;;;;;;0.08;84.47;97857.48;105124;1325;22579;-76
2021/12/06 05:45:30;;;;;;;25.80;13.20;;;;;;;0.11;84.58;97859.08;105129;1324;25406;-75
2021/12/06 05:47:57;;;;;;;26.10;13.60;;;;;;;0.12;84.73;97864.34;105142;1325;22674;-76
2021/12/06 05:50:25;;;;;;;26.30;13.20;;;;;;;0.11;84.87;97867.83;105147;1325;22701;-76
2021/12/06 05:52:55;;;;;;;26.40;13.40;;;;;;;0.12;84.85;97870.19;105171;1325;22519;-76
2021/12/06 05:55:27;;;;;;;29.70;14.50;;;;;;;0.11;84.53;97876.36;105089;1325;24306;-75
2021/12/06 05:58:00;;;;;;;28.30;13.40;;;;;;;0.13;84.52;97884.88;105095;1325;22614;-76
2021/12/06 06:00:30;;;;;;;30.30;14.70;;;;;;;0.16;84.56;97891.63;105144;1325;22741;-76
2021/12/06 06:02:58;;;;;;;31.30;14.90;;;;;;;0.14;84.85;97895.79;105141;1325;22585;-76
2021/12/06 06:05:26;;;;;;;32.00;15.70;;;;;;;0.10;84.88;97908.63;105116;1325;22705;-76
2021/12/06 06:07:53;;;;;;;31.70;15.30;;;;;;;0.09;84.80;97913.43;105126;1324;23335;-77
2021/12/06 06:10:20;;;;;;;34.00;15.70;;;;;;;0.10;84.67;97919.20;105088;1325;22618;-76
2021/12/06 06:12:47;;;;;;;33.30;15.30;;;;;;;0.12;84.35;97917.25;105116;1325;25368;-77
2021/12/06 06:15:14;;;;;;;31.70;15.80;;;;;;;0.17;84.15;97918.30;105213;1325;22716;-76
2021/12/06 06:17:47;;;;;;;31.60;15.20;;;;;;;0.19;84.32;97918.02;105114;1325;22623;-76
2021/12/06 06:20:16;;;;;;;30.20;14.80;;;;;;;0.22;84.60;97913.30;105123;1325;22634;-76
2021/12/06 06:22:43;;;;;;;31.60;14.30;;;;;;;0.20;84.82;97913.73;105138;1325;22598;-77
2021/12/06 06:25:11;;;;;;;32.40;15.50;;;;;;;0.16;84.48;97914.58;105080;1325;22717;-77
2021/12/06 06:27:38;;;;;;;35.50;15.50;;;;;;;0.12;84.43;97912.98;105074;1325;22633;-77
2021/12/06 06:30:06;;;;;;;31.90;16.00;;;;;;;0.08;84.10;97905.08;105138;1325;22710;-77
2021/12/06 06:32:33;;;;;;;34.70;15.90;;;;;;;0.10;84.26;97902.97;105139;1324;22588;-77
2021/12/06 06:35:00;;;;;;;36.10;17.90;;;;;;;0.11;84.42;97904.78;105148;1325;25259;-76
2021/12/06 06:37:27;;;;;;;38.50;17.30;;;;;;;0.12;84.84;97905.95;105133;1324;22586;-77
2021/12/06 06:39:54;;;;;;;41.40;18.20;;;;;;;0.08;84.96;97916.05;105090;1325;22654;-77
2021/12/06 06:42:24;;;;;;;40.00;18.90;;;;;;;0.06;84.82;97926.02;105144;1325;22677;-77
2021/12/06 06:44:53;;;;;;;41.50;19.60;;;;;;;0.06;84.79;97933.76;105128;1325;22656;-77
2021/12/06 06:47:21;;;;;;;43.20;18.60;;;;;;;0.07;84.42;97933.36;105154;1325;22635;-77
2021/12/06 06:49:49;;;;;;;43.70;18.00;;;;;;;0.11;84.26;97935.29;105383;1325;22701;-77
2021/12/06 06:52:16;;;;;;;39.30;19.20;;;;;;;0.12;84.53;97930.11;105102;1325;22614;-77
2021/12/06 06:54:43;;;;;;;37.70;19.30;;;;;;;0.09;84.85;97927.64;105138;1325;22681;-77
2021/12/06 06:57:11;;;;;;;40.40;18.50;;;;;;;0.04;84.88;97936.04;105155;1325;25952;-76
2021/12/06 06:59:38;;;;;;;42.50;19.90;;;;;;;0.00;84.64;97940.64;105096;1324;22776;-75
2021/12/06 07:02:05;;;;;;;41.60;18.90;;;;;;;0.00;84.55;97942.49;105108;1324;22699;-75
2021/12/06 07:04:33;;;;;;;44.90;19.20;;;;;;;0.04;84.41;97946.83;104931;1316;250353;-76
2021/12/06 07:07:00;;;;;;;44.90;19.10;;;;;;;0.06;84.59;97949.32;105124;1325;24240;-75
2021/12/06 07:09:27;;;;;;;40.30;19.60;;;;;;;0.09;84.59;97954.20;105128;1325;24781;-75
2021/12/06 07:11:54;;;;;;;45.00;21.70;;;;;;;0.11;84.56;97963.17;105092;1324;22704;-75
2021/12/06 07:14:21;;;;;;;44.20;21.60;;;;;;;0.13;84.61;97962.08;105091;1324;22603;-75
2021/12/06 07:16:48;;;;;;;44.40;20.70;;;;;;;0.11;84.28;97965.40;105127;1324;22756;-75
2021/12/06 07:19:15;;;;;;;47.50;22.80;;;;;;;0.08;84.13;97970.33;105065;1325;22637;-75
2021/12/06 07:21:43;;;;;;;56.80;25.30;;;;;;;0.12;84.23;97973.27;105087;1325;22674;-76
2021/12/06 07:24:10;;;;;;;47.80;20.80;;;;;;;0.15;84.34;97974.87;105101;1324;22663;-75
2021/12/06 07:26:38;;;;;;;37.90;18.00;;;;;;;0.18;84.62;97972.17;105094;1324;22584;-75
2021/12/06 07:29:05;;;;;;;43.30;20.90;;;;;;;0.16;84.61;97972.61;105088;1325;22645;-74
2021/12/06 07:31:32;;;;;;;41.60;19.50;;;;;;;0.13;84.43;97973.38;105132;1325;22695;-75
2021/12/06 07:33:59;;;;;;;41.30;19.80;;;;;;;0.12;84.36;97972.73;105094;1324;23592;-75
2021/12/06 07:36:28;;;;;;;41.00;20.30;;;;;;;0.10;84.15;97976.06;105110;1325;25407;-76
2021/12/06 07:38:55;;;;;;;39.90;19.80;;;;;;;0.11;84.06;97978.94;105121;1323;22592;-75
2021/12/06 07:41:24;;;;;;;38.90;18.40;;;;;;;0.15;84.19;97986.52;105057;1322;23606;-74
2021/12/06 07:43:51;;;;;;;37.90;18.80;;;;;;;0.18;84.37;97991.87;105099;1325;24009;-76
2021/12/06 07:46:18;;;;;;;40.90;20.20;;;;;;;0.19;84.61;97994.39;105126;1325;22620;-75
2021/12/06 07:48:45;;;;;;;41.80;21.30;;;;;;;0.16;84.40;97988.70;105108;1324;22613;-76
2021/12/06 07:51:12;;;;;;;40.50;20.00;;;;;;;0.13;84.19;97989.83;105105;1325;22593;-75
2021/12/06 07:53:40;;;;;;;43.40;19.10;;;;;;;0.12;84.03;97990.55;105082;1324;22584;-74
2021/12/06 07:56:07;;;;;;;38.50;20.90;;;;;;;0.16;83.98;97987.02;105111;1325;22610;-75
2021/12/06 07:58:34;;;;;;;43.00;21.20;;;;;;;0.20;84.10;97988.71;105087;1325;22651;-74
2021/12/06 08:01:02;;;;;;;39.20;20.80;;;;;;;0.21;84.25;97990.58;105146;1324;22583;-76
2021/12/06 08:03:31;;;;;;;41.20;20.50;;;;;;;0.20;84.32;97991.30;105125;1323;25272;-76
2021/12/06 08:05:59;;;;;;;35.80;19.90;;;;;;;0.22;84.31;97995.50;105159;1325;22589;-76
2021/12/06 08:08:28;;;;;;;39.50;20.40;;;;;;;0.24;84.14;97990.14;105168;1325;22580;-78
2021/12/06 08:10:58;;;;;;;41.00;20.80;;;;;;;0.26;84.01;97988.35;105053;1325;25050;-77
2021/12/06 08:13:28;;;;;;;42.30;20.50;;;;;;;0.32;83.81;97986.25;105190;1318;22718;-76
2021/12/06 08:16:00;;;;;;;41.40;20.60;;;;;;;0.36;83.88;97991.60;105176;1323;23219;-76
2021/12/06 08:18:27;;;;;;;37.50;19.10;;;;;;;0.40;83.97;97987.89;105286;1325;22630;-75
2021/12/06 08:20:56;;;;;;;39.30;20.60;;;;;;;0.40;84.34;97989.25;105164;1325;22631;-76
2021/12/06 08:23:24;;;;;;;45.00;22.40;;;;;;;0.38;83.97;97993.40;105171;1324;22781;-77
2021/12/06 08:25:51;;;;;;;39.70;19.80;;;;;;;0.37;83.90;97996.89;105161;1325;23638;-77
2021/12/06 08:28:20;;;;;;;42.50;20.40;;;;;;;0.36;83.68;98000.84;105133;1325;22592;-76
2021/12/06 08:30:47;;;;;;;38.00;18.70;;;;;;;0.41;83.71;98004.98;105593;1325;22585;-77
2021/12/06 08:33:15;;;;;;;37.70;19.80;;;;;;;0.44;83.82;98006.79;105130;1324;23103;-76
2021/12/06 08:35:48;;;;;;;37.20;19.10;;;;;;;0.42;84.09;98007.67;105125;1324;23531;-77
2021/12/06 08:38:16;;;;;;;45.60;21.00;;;;;;;0.38;84.13;98011.39;105120;1324;22749;-77
2021/12/06 08:40:44;;;;;;;39.00;19.00;;;;;;;0.32;83.88;98010.42;105117;1325;22800;-76
2021/12/06 08:43:19;;;;;;;42.40;20.40;;;;;;;0.29;83.77;98017.02;105126;1324;22630;-75
2021/12/06 08:45:57;;;;;;;37.50;19.90;;;;;;;0.27;83.62;98023.07;105157;1325;22646;-76
2021/12/06 08:48:28;;;;;;;44.00;19.40;;;;;;;0.33;83.46;98029.58;105144;1323;24504;-76
2021/12/06 08:50:57;;;;;;;38.80;20.10;;;;;;;0.35;83.62;98028.83;105155;1325;22699;-76
2021/12/06 08:53:24;;;;;;;38.70;19.30;;;;;;;0.31;83.90;98032.19;105174;1325;22665;-76
2021/12/06 08:55:52;;;;;;;41.50;20.20;;;;;;;0.26;83.91;98032.36;105192;1324;22627;-77
2021/12/06 08:58:20;;;;;;;43.50;21.30;;;;;;;0.21;83.82;98035.95;105216;1324;22732;-76
2021/12/06 09:00:47;;;;;;;44.80;19.70;;;;;;;0.20;83.52;98034.95;105135;1324;22679;-77
2021/12/06 09:03:15;;;;;;;41.50;19.80;;;;;;;0.20;83.31;98036.15;105174;1325;25441;-77
2021/12/06 09:05:49;;;;;;;48.70;22.90;;;;;;;0.22;83.21;98032.67;105198;1325;24293;-77
2021/12/06 09:08:17;;;;;;;48.60;22.10;;;;;;;0.23;83.56;98038.13;105419;1324;22612;-76
2021/12/06 09:10:50;;;;;;;37.60;18.60;;;;;;;0.25;83.90;98039.77;105450;1321;25388;-77
2021/12/06 09:13:20;;;;;;;44.90;21.10;;;;;;;0.25;83.83;98039.10;105415;1325;22874;-76
2021/12/06 09:15:48;;;;;;;42.40;21.30;;;;;;;0.26;83.70;98044.38;105398;1322;22744;-77
2021/12/06 09:18:15;;;;;;;47.60;21.90;;;;;;;0.29;83.41;98043.91;105436;1325;22652;-76
2021/12/06 09:20:46;;;;;;;47.60;21.80;;;;;;;0.31;83.12;98047.42;105420;1325;22686;-77
2021/12/06 09:23:14;;;;;;;45.80;21.60;;;;;;;0.38;83.20;98044.64;105422;1324;22813;-77
2021/12/06 09:25:44;;;;;;;41.30;20.60;;;;;;;0.43;83.26;98052.70;105442;1325;22591;-77
2021/12/06 09:28:13;;;;;;;44.50;20.80;;;;;;;0.46;83.65;98050.05;105420;1325;22597;-78
2021/12/06 09:30:41;;;;;;;42.50;19.90;;;;;;;0.45;83.68;98055.06;105428;1324;22622;-78
2021/12/06 09:33:11;;;;;;;41.70;20.40;;;;;;;0.42;83.31;98058.40;105412;1325;24211;-76
2021/12/06 09:35:44;;;;;;;42.20;21.00;;;;;;;0.39;83.09;98058.30;105439;1325;22606;-76
2021/12/06 09:38:15;;;;;;;38.10;19.30;;;;;;;0.36;82.77;98061.15;105393;1325;22555;-78
2021/12/06 09:40:45;;;;;;;45.40;20.60;;;;;;;0.34;82.80;98055.40;105408;1325;24394;-77
2021/12/06 09:43:14;;;;;;;40.50;20.00;;;;;;;0.32;83.32;98053.74;105440;1325;24098;-77
2021/12/06 09:45:43;;;;;;;44.00;19.30;;;;;;;0.33;83.55;98054.93;105441;1322;22689;-77
2021/12/06 09:48:12;;;;;;;41.90;20.60;;;;;;;0.32;83.37;98056.67;105398;1325;22652;-78
2021/12/06 09:50:48;;;;;;;43.80;21.70;;;;;;;0.28;82.92;98053.54;105440;1324;22677;-78
2021/12/06 09:53:20;;;;;;;40.40;20.60;;;;;;;0.20;82.98;98059.79;105437;1324;22669;-78
2021/12/06 09:55:49;;;;;;;45.30;19.80;;;;;;;0.20;82.80;98059.27;105427;1325;22587;-78
2021/12/06 09:58:18;;;;;;;42.50;21.10;;;;;;;0.23;82.65;98056.25;105426;1322;22709;-78
2021/12/06 10:00:49;;;;;;;49.30;23.00;;;;;;;0.27;83.06;98056.82;105436;1325;22802;-77
2021/12/06 10:03:22;;;;;;;46.50;22.30;;;;;;;0.26;83.22;98057.05;105435;1325;22593;-78
2021/12/06 10:05:50;;;;;;;46.90;22.20;;;;;;;0.29;83.27;98056.07;105444;1325;22659;-78
2021/12/06 10:08:18;;;;;;;42.90;20.70;;;;;;;0.27;83.12;98057.01;105417;1324;22734;-78
2021/12/06 10:10:45;;;;;;;40.40;20.60;;;;;;;0.26;82.98;98057.72;105415;1325;24341;-78
2021/12/06 10:13:12;;;;;;;41.50;20.70;;;;;;;0.24;82.75;98060.35;105432;1324;22658;-78
2021/12/06 10:15:41;;;;;;;42.80;20.30;;;;;;;0.30;82.57;98059.13;105422;1324;22582;-76
2021/12/06 10:18:10;;;;;;;42.00;18.80;;;;;;;0.32;82.92;98061.64;105454;1325;22603;-77
2021/12/06 10:20:37;;;;;;;36.00;19.20;;;;;;;0.34;83.21;98056.77;105420;1324;22870;-76
2021/12/06 10:23:04;;;;;;;40.40;19.10;;;;;;;0.33;83.08;98057.14;105427;1325;22821;-76
2021/12/06 10:25:40;;;;;;;44.10;22.00;;;;;;;0.32;82.91;98052.55;105397;1324;22588;-76
2021/12/06 10:28:09;;;;;;;44.50;21.80;;;;;;;0.29;82.59;98056.91;105376;1324;22613;-77
2021/12/06 10:30:43;;;;;;;35.70;18.20;;;;;;;0.32;82.33;98054.60;105364;1324;22621;-76
2021/12/06 10:33:14;;;;;;;39.60;20.10;;;;;;;0.33;82.37;98055.79;105388;1322;22622;-77
2021/12/06 10:35:43;;;;;;;39.40;19.00;;;;;;;0.39;82.71;98061.55;105395;1324;22586;-77
2021/12/06 10:38:11;;;;;;;33.80;18.30;;;;;;;0.48;82.85;98063.69;105391;1319;26662;-77
2021/12/06 10:40:41;;;;;;;36.30;18.40;;;;;;;0.52;82.95;98059.59;105397;1323;22767;-77
2021/12/06 10:43:11;;;;;;;33.30;18.30;;;;;;;0.52;82.66;98060.79;105390;1325;25409;-77
2021/12/06 10:45:49;;;;;;;31.00;15.90;;;;;;;0.54;82.31;98059.70;105373;1325;22670;-77
2021/12/06 10:48:25;;;;;;;33.90;16.90;;;;;;;0.52;82.22;98060.30;105370;1322;22655;-77
2021/12/06 10:50:52;;;;;;;31.40;17.40;;;;;;;0.53;81.95;98059.89;105394;1324;22617;-77
2021/12/06 10:53:23;;;;;;;33.80;16.70;;;;;;;0.58;81.90;98059.39;105440;1324;22586;-77
2021/12/06 10:55:53;;;;;;;36.30;17.50;;;;;;;0.58;82.37;98065.38;105415;1325;22602;-77
2021/12/06 10:58:26;;;;;;;30.40;16.20;;;;;;;0.59;82.55;98064.98;105435;1321;22606;-77
2021/12/06 11:01:08;;;;;;;;;;;;;;;0.61;82.60;98066.64;105437;1322;22715;-77
2021/12/06 11:03:50;;;;;;;33.80;16.90;;;;;;;0.63;82.38;98071.89;105399;1324;22713;-77
2021/12/06 11:06:23;;;;;;;32.20;16.10;;;;;;;0.63;81.92;98069.67;105443;1325;23173;-77
2021/12/06 11:08:54;;;;;;;32.30;15.40;;;;;;;0.60;81.74;98064.11;105484;1323;22580;-77
2021/12/06 11:11:26;;;;;;;32.00;15.80;;;;;;;0.62;81.87;98066.80;105434;1324;24341;-78
2021/12/06 11:14:19;;;;;;;31.90;15.30;;;;;;;0.66;82.21;98065.27;105421;1324;25255;-78
2021/12/06 11:16:51;;;;;;;28.00;14.90;;;;;;;0.69;82.51;98062.41;105439;1325;22675;-78
2021/12/06 11:19:20;;;;;;;35.50;16.10;;;;;;;0.63;82.36;98061.07;105447;1324;22939;-77
2021/12/06 11:22:00;;;;;;;25.50;14.20;;;;;;;0.59;81.95;98060.54;105423;1325;22611;-78
2021/12/06 11:24:30;;;;;;;32.50;16.20;;;;;;;0.54;81.67;98062.09;105430;1324;22625;-77
2021/12/06 11:27:24;;;;;;;27.50;14.70;;;;;;;0.50;81.74;98067.02;105425;1324;22743;-77
2021/12/06 11:29:55;;;;;;;37.50;18.60;;;;;;;0.52;81.64;98066.27;105435;1324;22663;-76
2021/12/06 11:32:32;;;;;;;30.60;15.30;;;;;;;0.50;82.03;98066.17;105388;1324;22678;-78
2021/12/06 11:35:19;;;;;;;30.80;14.50;;;;;;;0.50;82.15;98065.48;105404;1324;22715;-78
2021/12/06 11:37:47;;;;;;;29.40;14.50;;;;;;;0.47;82.01;98066.97;105428;1325;25711;-78
2021/12/06 11:40:19;;;;;;;27.00;14.80;;;;;;;0.41;81.68;98064.77;105428;1325;22595;-78
2021/12/06 11:42:53;;;;;;;31.60;17.10;;;;;;;0.39;81.75;98065.67;105415;1324;22570;-78